sensor_id;sensor_type;location;lat;lon;timestamp;P1;durP1;ratioP1;P2;durP2;ratioP2
46290;SDS011;32023;44.444;26.006;2024-02-04T00:01:55;25.95;;;14.40;;
46290;SDS011;32023;44.444;26.006;2024-02-04T00:04:22;28.23;;;14.57;;
46290;SDS011;32023;44.444;26.006;2024-02-04T00:09:39;28.15;;;15.70;;
46290;SDS011;32023;44.444;26.006;2024-02-04T00:12:12;26.77;;;15.02;;
46290;SDS011;32023;44.444;26.006;2024-02-04T00:14:41;23.20;;;14.90;;
46290;SDS011;32023;44.444;26.006;2024-02-04T00:17:08;26.38;;;15.02;;
46290;SDS011;32023;44.444;26.006;2024-02-04T00:22:31;25.25;;;16.05;;
46290;SDS011;32023;44.444;26.006;2024-02-04T00:28:00;27.98;;;16.27;;
46290;SDS011;32023;44.444;26.006;2024-02-04T00:36:13;28.65;;;15.80;;
46290;SDS011;32023;44.444;26.006;2024-02-04T00:38:48;26.48;;;14.50;;
46290;SDS011;32023;44.444;26.006;2024-02-04T00:41:41;26.25;;;15.48;;
46290;SDS011;32023;44.444;26.006;2024-02-04T00:44:07;27.02;;;15.23;;
46290;SDS011;32023;44.444;26.006;2024-02-04T00:49:19;24.08;;;14.70;;
46290;SDS011;32023;44.444;26.006;2024-02-04T00:51:46;25.58;;;15.68;;
46290;SDS011;32023;44.444;26.006;2024-02-04T00:57:10;22.23;;;14.35;;
46290;SDS011;32023;44.444;26.006;2024-02-04T00:59:58;25.88;;;14.98;;
46290;SDS011;32023;44.444;26.006;2024-02-04T01:02:41;28.00;;;16.38;;
46290;SDS011;32023;44.444;26.006;2024-02-04T01:05:08;29.27;;;15.30;;
46290;SDS011;32023;44.444;26.006;2024-02-04T01:07:34;23.33;;;15.48;;
46290;SDS011;32023;44.444;26.006;2024-02-04T01:10:04;24.58;;;15.25;;
46290;SDS011;32023;44.444;26.006;2024-02-04T01:12:31;26.75;;;14.88;;
46290;SDS011;32023;44.444;26.006;2024-02-04T01:14:57;25.08;;;14.65;;
46290;SDS011;32023;44.444;26.006;2024-02-04T01:17:24;25.25;;;15.85;;
46290;SDS011;32023;44.444;26.006;2024-02-04T01:19:51;23.60;;;15.80;;
46290;SDS011;32023;44.444;26.006;2024-02-04T01:22:20;25.10;;;15.40;;
46290;SDS011;32023;44.444;26.006;2024-02-04T01:24:51;26.15;;;16.58;;
46290;SDS011;32023;44.444;26.006;2024-02-04T01:27:18;28.02;;;16.58;;
46290;SDS011;32023;44.444;26.006;2024-02-04T01:29:54;25.05;;;15.90;;
46290;SDS011;32023;44.444;26.006;2024-02-04T01:32:23;26.27;;;16.20;;
46290;SDS011;32023;44.444;26.006;2024-02-04T01:34:58;24.73;;;15.27;;
46290;SDS011;32023;44.444;26.006;2024-02-04T01:37:24;26.48;;;16.05;;
46290;SDS011;32023;44.444;26.006;2024-02-04T01:39:51;25.25;;;16.17;;
46290;SDS011;32023;44.444;26.006;2024-02-04T01:47:45;27.13;;;16.95;;
46290;SDS011;32023;44.444;26.006;2024-02-04T01:50:13;29.90;;;17.15;;
46290;SDS011;32023;44.444;26.006;2024-02-04T01:52:41;30.83;;;17.58;;
46290;SDS011;32023;44.444;26.006;2024-02-04T01:55:09;27.33;;;17.25;;
46290;SDS011;32023;44.444;26.006;2024-02-04T01:57:36;24.60;;;15.52;;
46290;SDS011;32023;44.444;26.006;2024-02-04T02:00:14;29.98;;;16.67;;
46290;SDS011;32023;44.444;26.006;2024-02-04T02:02:43;27.55;;;16.63;;
46290;SDS011;32023;44.444;26.006;2024-02-04T02:05:13;25.80;;;16.30;;
46290;SDS011;32023;44.444;26.006;2024-02-04T02:07:40;33.38;;;16.75;;
46290;SDS011;32023;44.444;26.006;2024-02-04T02:10:10;28.25;;;16.65;;
46290;SDS011;32023;44.444;26.006;2024-02-04T02:12:42;28.05;;;16.60;;
46290;SDS011;32023;44.444;26.006;2024-02-04T02:15:15;26.02;;;17.10;;
46290;SDS011;32023;44.444;26.006;2024-02-04T02:18:00;28.30;;;16.52;;
46290;SDS011;32023;44.444;26.006;2024-02-04T02:23:06;28.55;;;15.48;;
46290;SDS011;32023;44.444;26.006;2024-02-04T02:28:29;29.50;;;16.02;;
46290;SDS011;32023;44.444;26.006;2024-02-04T02:30:57;25.15;;;16.45;;
46290;SDS011;32023;44.444;26.006;2024-02-04T02:36:02;25.20;;;16.55;;
46290;SDS011;32023;44.444;26.006;2024-02-04T02:44:29;31.25;;;18.35;;
46290;SDS011;32023;44.444;26.006;2024-02-04T02:46:58;28.27;;;18.63;;
46290;SDS011;32023;44.444;26.006;2024-02-04T02:49:27;29.23;;;18.25;;
46290;SDS011;32023;44.444;26.006;2024-02-04T02:51:59;33.28;;;19.65;;
46290;SDS011;32023;44.444;26.006;2024-02-04T02:54:31;32.55;;;19.70;;
46290;SDS011;32023;44.444;26.006;2024-02-04T02:56:57;32.88;;;20.13;;
46290;SDS011;32023;44.444;26.006;2024-02-04T02:59:23;32.13;;;19.38;;
46290;SDS011;32023;44.444;26.006;2024-02-04T03:01:50;36.28;;;19.85;;
46290;SDS011;32023;44.444;26.006;2024-02-04T03:04:16;33.05;;;20.83;;
46290;SDS011;32023;44.444;26.006;2024-02-04T03:06:43;31.50;;;20.60;;
46290;SDS011;32023;44.444;26.006;2024-02-04T03:09:09;29.25;;;19.23;;
46290;SDS011;32023;44.444;26.006;2024-02-04T03:11:36;31.77;;;20.90;;
46290;SDS011;32023;44.444;26.006;2024-02-04T03:14:03;31.83;;;19.33;;
46290;SDS011;32023;44.444;26.006;2024-02-04T03:16:29;32.33;;;18.65;;
46290;SDS011;32023;44.444;26.006;2024-02-04T03:18:56;33.00;;;20.75;;
46290;SDS011;32023;44.444;26.006;2024-02-04T03:21:22;34.45;;;20.20;;
46290;SDS011;32023;44.444;26.006;2024-02-04T03:23:48;33.22;;;19.90;;
46290;SDS011;32023;44.444;26.006;2024-02-04T03:26:18;33.42;;;21.13;;
46290;SDS011;32023;44.444;26.006;2024-02-04T03:28:44;32.13;;;19.90;;
46290;SDS011;32023;44.444;26.006;2024-02-04T03:34:11;31.13;;;20.02;;
46290;SDS011;32023;44.444;26.006;2024-02-04T03:36:38;34.55;;;20.65;;
46290;SDS011;32023;44.444;26.006;2024-02-04T03:39:04;34.92;;;20.70;;
46290;SDS011;32023;44.444;26.006;2024-02-04T03:41:31;33.38;;;20.35;;
46290;SDS011;32023;44.444;26.006;2024-02-04T03:43:58;29.23;;;18.23;;
46290;SDS011;32023;44.444;26.006;2024-02-04T03:46:39;29.25;;;18.95;;
46290;SDS011;32023;44.444;26.006;2024-02-04T03:49:06;26.92;;;17.75;;
46290;SDS011;32023;44.444;26.006;2024-02-04T03:51:35;34.40;;;19.85;;
46290;SDS011;32023;44.444;26.006;2024-02-04T03:54:01;31.75;;;19.17;;
46290;SDS011;32023;44.444;26.006;2024-02-04T03:59:10;28.85;;;18.80;;
46290;SDS011;32023;44.444;26.006;2024-02-04T04:01:36;29.35;;;18.88;;
46290;SDS011;32023;44.444;26.006;2024-02-04T04:04:07;32.38;;;18.63;;
46290;SDS011;32023;44.444;26.006;2024-02-04T04:06:44;33.50;;;19.13;;
46290;SDS011;32023;44.444;26.006;2024-02-04T04:09:11;26.90;;;17.38;;
46290;SDS011;32023;44.444;26.006;2024-02-04T04:14:27;28.95;;;18.13;;
46290;SDS011;32023;44.444;26.006;2024-02-04T04:16:53;25.77;;;17.60;;
46290;SDS011;32023;44.444;26.006;2024-02-04T04:19:30;26.25;;;17.05;;
46290;SDS011;32023;44.444;26.006;2024-02-04T04:24:28;29.63;;;18.25;;
46290;SDS011;32023;44.444;26.006;2024-02-04T04:26:55;31.02;;;18.40;;
46290;SDS011;32023;44.444;26.006;2024-02-04T04:29:24;27.63;;;17.15;;
46290;SDS011;32023;44.444;26.006;2024-02-04T04:31:53;26.80;;;17.88;;
46290;SDS011;32023;44.444;26.006;2024-02-04T04:34:20;28.95;;;17.27;;
46290;SDS011;32023;44.444;26.006;2024-02-04T04:36:46;30.75;;;18.38;;
46290;SDS011;32023;44.444;26.006;2024-02-04T04:39:12;28.35;;;18.48;;
46290;SDS011;32023;44.444;26.006;2024-02-04T04:41:47;26.40;;;17.70;;
46290;SDS011;32023;44.444;26.006;2024-02-04T04:44:13;28.50;;;17.30;;
46290;SDS011;32023;44.444;26.006;2024-02-04T04:46:40;27.55;;;18.77;;
46290;SDS011;32023;44.444;26.006;2024-02-04T04:51:52;30.23;;;18.02;;
46290;SDS011;32023;44.444;26.006;2024-02-04T04:54:19;24.17;;;16.33;;
46290;SDS011;32023;44.444;26.006;2024-02-04T04:56:58;28.75;;;18.27;;
46290;SDS011;32023;44.444;26.006;2024-02-04T04:59:25;32.15;;;18.67;;
46290;SDS011;32023;44.444;26.006;2024-02-04T05:01:51;26.92;;;17.45;;
46290;SDS011;32023;44.444;26.006;2024-02-04T05:04:17;30.60;;;18.45;;
46290;SDS011;32023;44.444;26.006;2024-02-04T05:06:44;27.42;;;18.20;;
46290;SDS011;32023;44.444;26.006;2024-02-04T05:09:10;25.75;;;16.95;;
46290;SDS011;32023;44.444;26.006;2024-02-04T05:11:36;30.90;;;17.83;;
46290;SDS011;32023;44.444;26.006;2024-02-04T05:14:04;26.08;;;18.00;;
46290;SDS011;32023;44.444;26.006;2024-02-04T05:16:30;31.48;;;17.88;;
46290;SDS011;32023;44.444;26.006;2024-02-04T05:18:57;27.60;;;17.83;;
46290;SDS011;32023;44.444;26.006;2024-02-04T05:21:23;31.45;;;18.95;;
46290;SDS011;32023;44.444;26.006;2024-02-04T05:23:50;29.70;;;17.70;;
46290;SDS011;32023;44.444;26.006;2024-02-04T05:26:19;27.75;;;19.30;;
46290;SDS011;32023;44.444;26.006;2024-02-04T05:31:44;29.30;;;18.65;;
46290;SDS011;32023;44.444;26.006;2024-02-04T05:34:13;24.70;;;17.70;;
46290;SDS011;32023;44.444;26.006;2024-02-04T05:36:40;28.02;;;17.90;;
46290;SDS011;32023;44.444;26.006;2024-02-04T05:39:10;31.83;;;18.40;;
46290;SDS011;32023;44.444;26.006;2024-02-04T05:41:41;28.15;;;18.77;;
46290;SDS011;32023;44.444;26.006;2024-02-04T05:44:08;31.45;;;18.98;;
46290;SDS011;32023;44.444;26.006;2024-02-04T05:46:37;31.67;;;20.30;;
46290;SDS011;32023;44.444;26.006;2024-02-04T05:49:08;30.35;;;20.05;;
46290;SDS011;32023;44.444;26.006;2024-02-04T05:51:43;27.70;;;18.83;;
46290;SDS011;32023;44.444;26.006;2024-02-04T05:54:18;31.88;;;19.30;;
46290;SDS011;32023;44.444;26.006;2024-02-04T05:56:47;31.27;;;19.85;;
46290;SDS011;32023;44.444;26.006;2024-02-04T05:59:13;31.40;;;19.60;;
46290;SDS011;32023;44.444;26.006;2024-02-04T06:01:41;27.50;;;19.13;;
46290;SDS011;32023;44.444;26.006;2024-02-04T06:04:08;34.33;;;20.90;;
46290;SDS011;32023;44.444;26.006;2024-02-04T06:09:32;30.73;;;19.88;;
46290;SDS011;32023;44.444;26.006;2024-02-04T06:12:00;28.40;;;18.27;;
46290;SDS011;32023;44.444;26.006;2024-02-04T06:14:32;30.45;;;17.95;;
46290;SDS011;32023;44.444;26.006;2024-02-04T06:17:10;31.38;;;18.23;;
46290;SDS011;32023;44.444;26.006;2024-02-04T06:19:41;29.73;;;18.25;;
46290;SDS011;32023;44.444;26.006;2024-02-04T06:22:10;30.20;;;19.38;;
46290;SDS011;32023;44.444;26.006;2024-02-04T06:24:47;29.80;;;18.88;;
46290;SDS011;32023;44.444;26.006;2024-02-04T06:27:15;29.30;;;19.17;;
46290;SDS011;32023;44.444;26.006;2024-02-04T06:29:43;30.75;;;18.95;;
46290;SDS011;32023;44.444;26.006;2024-02-04T06:32:16;30.90;;;18.10;;
46290;SDS011;32023;44.444;26.006;2024-02-04T06:37:24;30.63;;;19.50;;
46290;SDS011;32023;44.444;26.006;2024-02-04T06:39:51;32.72;;;20.98;;
46290;SDS011;32023;44.444;26.006;2024-02-04T06:42:18;50.65;;;28.05;;
46290;SDS011;32023;44.444;26.006;2024-02-04T06:44:55;80.63;;;38.75;;
46290;SDS011;32023;44.444;26.006;2024-02-04T06:47:24;59.88;;;31.35;;
46290;SDS011;32023;44.444;26.006;2024-02-04T06:49:50;49.05;;;27.80;;
46290;SDS011;32023;44.444;26.006;2024-02-04T06:52:17;34.22;;;21.73;;
46290;SDS011;32023;44.444;26.006;2024-02-04T06:57:13;27.10;;;17.70;;
46290;SDS011;32023;44.444;26.006;2024-02-04T06:59:42;25.38;;;16.83;;
46290;SDS011;32023;44.444;26.006;2024-02-04T07:02:16;31.30;;;18.15;;
46290;SDS011;32023;44.444;26.006;2024-02-04T07:04:43;23.85;;;16.88;;
46290;SDS011;32023;44.444;26.006;2024-02-04T07:09:46;26.00;;;16.70;;
46290;SDS011;32023;44.444;26.006;2024-02-04T07:12:19;24.92;;;17.13;;
46290;SDS011;32023;44.444;26.006;2024-02-04T07:14:46;33.80;;;17.15;;
46290;SDS011;32023;44.444;26.006;2024-02-04T07:17:12;26.15;;;16.00;;
46290;SDS011;32023;44.444;26.006;2024-02-04T07:19:41;27.35;;;17.77;;
46290;SDS011;32023;44.444;26.006;2024-02-04T07:31:18;26.58;;;16.65;;
46290;SDS011;32023;44.444;26.006;2024-02-04T07:33:45;29.10;;;16.58;;
46290;SDS011;32023;44.444;26.006;2024-02-04T07:39:27;26.40;;;15.77;;
46290;SDS011;32023;44.444;26.006;2024-02-04T07:41:58;22.33;;;15.88;;
46290;SDS011;32023;44.444;26.006;2024-02-04T07:44:28;26.00;;;15.90;;
46290;SDS011;32023;44.444;26.006;2024-02-04T07:47:04;24.38;;;15.20;;
46290;SDS011;32023;44.444;26.006;2024-02-04T07:49:44;27.75;;;16.25;;
46290;SDS011;32023;44.444;26.006;2024-02-04T07:52:17;26.00;;;16.35;;
46290;SDS011;32023;44.444;26.006;2024-02-04T07:57:40;34.60;;;18.88;;
46290;SDS011;32023;44.444;26.006;2024-02-04T08:00:07;23.73;;;15.75;;
46290;SDS011;32023;44.444;26.006;2024-02-04T08:02:35;27.70;;;16.65;;
46290;SDS011;32023;44.444;26.006;2024-02-04T08:14:23;26.20;;;15.73;;
46290;SDS011;32023;44.444;26.006;2024-02-04T08:17:00;23.40;;;16.10;;
46290;SDS011;32023;44.444;26.006;2024-02-04T08:19:32;25.65;;;15.63;;
46290;SDS011;32023;44.444;26.006;2024-02-04T08:21:58;25.30;;;15.52;;
46290;SDS011;32023;44.444;26.006;2024-02-04T08:24:29;32.35;;;17.33;;
46290;SDS011;32023;44.444;26.006;2024-02-04T08:27:05;28.25;;;16.65;;
46290;SDS011;32023;44.444;26.006;2024-02-04T08:29:38;23.58;;;14.30;;
46290;SDS011;32023;44.444;26.006;2024-02-04T08:32:12;24.60;;;14.63;;
46290;SDS011;32023;44.444;26.006;2024-02-04T08:34:38;25.38;;;15.70;;
46290;SDS011;32023;44.444;26.006;2024-02-04T08:37:06;23.60;;;15.55;;
46290;SDS011;32023;44.444;26.006;2024-02-04T08:39:32;29.20;;;14.90;;
46290;SDS011;32023;44.444;26.006;2024-02-04T08:42:01;23.35;;;15.07;;
46290;SDS011;32023;44.444;26.006;2024-02-04T08:44:28;26.27;;;15.25;;
46290;SDS011;32023;44.444;26.006;2024-02-04T08:46:54;25.45;;;15.13;;
46290;SDS011;32023;44.444;26.006;2024-02-04T08:49:27;21.67;;;15.38;;
46290;SDS011;32023;44.444;26.006;2024-02-04T08:51:54;23.25;;;15.18;;
46290;SDS011;32023;44.444;26.006;2024-02-04T08:54:21;26.73;;;16.02;;
46290;SDS011;32023;44.444;26.006;2024-02-04T08:56:50;21.95;;;14.98;;
46290;SDS011;32023;44.444;26.006;2024-02-04T08:59:19;26.05;;;15.70;;
46290;SDS011;32023;44.444;26.006;2024-02-04T09:01:46;25.48;;;15.30;;
46290;SDS011;32023;44.444;26.006;2024-02-04T09:04:15;25.65;;;14.75;;
46290;SDS011;32023;44.444;26.006;2024-02-04T09:06:51;28.23;;;15.90;;
46290;SDS011;32023;44.444;26.006;2024-02-04T09:09:17;24.45;;;14.82;;
46290;SDS011;32023;44.444;26.006;2024-02-04T09:17:26;24.88;;;15.77;;
46290;SDS011;32023;44.444;26.006;2024-02-04T09:25:45;31.63;;;19.13;;
46290;SDS011;32023;44.444;26.006;2024-02-04T09:31:29;28.67;;;18.55;;
46290;SDS011;32023;44.444;26.006;2024-02-04T09:34:06;29.80;;;17.75;;
46290;SDS011;32023;44.444;26.006;2024-02-04T09:39:44;29.42;;;16.85;;
46290;SDS011;32023;44.444;26.006;2024-02-04T09:42:39;29.20;;;19.15;;
46290;SDS011;32023;44.444;26.006;2024-02-04T09:48:56;29.42;;;18.10;;
46290;SDS011;32023;44.444;26.006;2024-02-04T09:54:11;33.80;;;19.73;;
46290;SDS011;32023;44.444;26.006;2024-02-04T09:56:41;30.30;;;19.05;;
46290;SDS011;32023;44.444;26.006;2024-02-04T10:02:05;27.30;;;18.13;;
46290;SDS011;32023;44.444;26.006;2024-02-04T10:04:40;29.65;;;17.65;;
46290;SDS011;32023;44.444;26.006;2024-02-04T10:07:22;30.05;;;17.88;;
46290;SDS011;32023;44.444;26.006;2024-02-04T10:22:35;24.25;;;15.90;;
46290;SDS011;32023;44.444;26.006;2024-02-04T10:29:14;22.65;;;15.02;;
46290;SDS011;32023;44.444;26.006;2024-02-04T10:35:25;20.58;;;13.63;;
46290;SDS011;32023;44.444;26.006;2024-02-04T10:48:09;21.25;;;14.15;;
46290;SDS011;32023;44.444;26.006;2024-02-04T10:54:55;23.95;;;13.77;;
46290;SDS011;32023;44.444;26.006;2024-02-04T11:27:22;21.17;;;12.70;;
46290;SDS011;32023;44.444;26.006;2024-02-04T11:46:02;16.00;;;9.40;;
46290;SDS011;32023;44.444;26.006;2024-02-04T11:48:57;15.95;;;11.18;;
46290;SDS011;32023;44.444;26.006;2024-02-04T11:51:25;14.98;;;10.13;;
46290;SDS011;32023;44.444;26.006;2024-02-04T11:53:54;14.52;;;9.15;;
46290;SDS011;32023;44.444;26.006;2024-02-04T11:59:29;16.00;;;10.85;;
46290;SDS011;32023;44.444;26.006;2024-02-04T12:05:35;11.32;;;8.80;;
46290;SDS011;32023;44.444;26.006;2024-02-04T12:08:33;10.13;;;8.07;;
46290;SDS011;32023;44.444;26.006;2024-02-04T12:21:09;10.98;;;7.88;;
46290;SDS011;32023;44.444;26.006;2024-02-04T12:26:48;9.10;;;8.10;;
46290;SDS011;32023;44.444;26.006;2024-02-04T12:35:57;8.90;;;6.50;;
46290;SDS011;32023;44.444;26.006;2024-02-04T12:38:26;7.72;;;6.35;;
46290;SDS011;32023;44.444;26.006;2024-02-04T12:41:00;7.72;;;5.80;;
46290;SDS011;32023;44.444;26.006;2024-02-04T12:43:29;12.13;;;5.95;;
46290;SDS011;32023;44.444;26.006;2024-02-04T12:45:56;8.57;;;5.72;;
46290;SDS011;32023;44.444;26.006;2024-02-04T12:48:24;12.18;;;5.40;;
46290;SDS011;32023;44.444;26.006;2024-02-04T12:50:55;6.10;;;5.07;;
46290;SDS011;32023;44.444;26.006;2024-02-04T12:53:23;5.68;;;4.47;;
46290;SDS011;32023;44.444;26.006;2024-02-04T12:55:57;8.10;;;4.88;;
46290;SDS011;32023;44.444;26.006;2024-02-04T12:58:26;7.85;;;4.88;;
46290;SDS011;32023;44.444;26.006;2024-02-04T13:01:04;5.43;;;4.43;;
46290;SDS011;32023;44.444;26.006;2024-02-04T13:03:32;6.28;;;5.15;;
46290;SDS011;32023;44.444;26.006;2024-02-04T13:15:12;6.18;;;4.25;;
46290;SDS011;32023;44.444;26.006;2024-02-04T13:21:20;8.30;;;4.28;;
46290;SDS011;32023;44.444;26.006;2024-02-04T13:23:47;5.45;;;3.83;;
46290;SDS011;32023;44.444;26.006;2024-02-04T13:26:24;10.15;;;4.00;;
46290;SDS011;32023;44.444;26.006;2024-02-04T13:29:09;8.85;;;3.92;;
46290;SDS011;32023;44.444;26.006;2024-02-04T13:37:11;6.20;;;3.50;;
46290;SDS011;32023;44.444;26.006;2024-02-04T13:39:37;5.50;;;3.53;;
46290;SDS011;32023;44.444;26.006;2024-02-04T13:42:33;4.90;;;3.33;;
46290;SDS011;32023;44.444;26.006;2024-02-04T13:47:54;5.28;;;3.42;;
46290;SDS011;32023;44.444;26.006;2024-02-04T13:53:10;4.05;;;2.65;;
46290;SDS011;32023;44.444;26.006;2024-02-04T13:56:00;4.22;;;3.00;;
46290;SDS011;32023;44.444;26.006;2024-02-04T13:58:36;5.55;;;3.22;;
46290;SDS011;32023;44.444;26.006;2024-02-04T14:01:06;5.40;;;3.20;;
46290;SDS011;32023;44.444;26.006;2024-02-04T14:03:32;4.45;;;3.30;;
46290;SDS011;32023;44.444;26.006;2024-02-04T14:06:03;4.93;;;3.35;;
46290;SDS011;32023;44.444;26.006;2024-02-04T14:09:03;5.65;;;3.40;;
46290;SDS011;32023;44.444;26.006;2024-02-04T14:11:30;6.57;;;3.63;;
46290;SDS011;32023;44.444;26.006;2024-02-04T14:17:22;6.55;;;2.88;;
46290;SDS011;32023;44.444;26.006;2024-02-04T14:19:48;4.45;;;2.58;;
46290;SDS011;32023;44.444;26.006;2024-02-04T14:22:22;4.78;;;3.83;;
46290;SDS011;32023;44.444;26.006;2024-02-04T14:27:40;6.03;;;3.10;;
46290;SDS011;32023;44.444;26.006;2024-02-04T14:30:11;2.90;;;2.00;;
46290;SDS011;32023;44.444;26.006;2024-02-04T14:35:39;3.90;;;2.20;;
46290;SDS011;32023;44.444;26.006;2024-02-04T14:38:16;3.00;;;1.85;;
46290;SDS011;32023;44.444;26.006;2024-02-04T14:40:43;3.40;;;2.15;;
46290;SDS011;32023;44.444;26.006;2024-02-04T14:43:18;3.35;;;1.88;;
46290;SDS011;32023;44.444;26.006;2024-02-04T14:45:46;3.03;;;1.40;;
46290;SDS011;32023;44.444;26.006;2024-02-04T14:48:15;4.90;;;2.22;;
46290;SDS011;32023;44.444;26.006;2024-02-04T14:50:44;5.00;;;2.35;;
46290;SDS011;32023;44.444;26.006;2024-02-04T14:53:14;4.03;;;2.15;;
46290;SDS011;32023;44.444;26.006;2024-02-04T14:55:40;4.72;;;1.92;;
46290;SDS011;32023;44.444;26.006;2024-02-04T14:58:12;4.90;;;1.70;;
46290;SDS011;32023;44.444;26.006;2024-02-04T15:00:41;6.95;;;2.47;;
46290;SDS011;32023;44.444;26.006;2024-02-04T15:03:09;4.45;;;2.28;;
46290;SDS011;32023;44.444;26.006;2024-02-04T15:05:42;2.53;;;1.60;;
46290;SDS011;32023;44.444;26.006;2024-02-04T15:08:17;3.78;;;2.00;;
46290;SDS011;32023;44.444;26.006;2024-02-04T15:10:51;5.10;;;2.83;;
46290;SDS011;32023;44.444;26.006;2024-02-04T15:13:32;5.10;;;2.08;;
46290;SDS011;32023;44.444;26.006;2024-02-04T15:15:59;4.68;;;2.65;;
46290;SDS011;32023;44.444;26.006;2024-02-04T15:18:32;3.20;;;1.92;;
46290;SDS011;32023;44.444;26.006;2024-02-04T15:20:59;6.57;;;2.28;;
46290;SDS011;32023;44.444;26.006;2024-02-04T15:23:32;13.67;;;7.00;;
46290;SDS011;32023;44.444;26.006;2024-02-04T15:26:00;24.92;;;10.00;;
46290;SDS011;32023;44.444;26.006;2024-02-04T15:28:34;14.75;;;7.20;;
46290;SDS011;32023;44.444;26.006;2024-02-04T15:31:02;6.55;;;4.00;;
46290;SDS011;32023;44.444;26.006;2024-02-04T15:33:35;4.88;;;3.13;;
46290;SDS011;32023;44.444;26.006;2024-02-04T15:36:07;6.38;;;3.08;;
46290;SDS011;32023;44.444;26.006;2024-02-04T15:38:52;6.55;;;3.22;;
46290;SDS011;32023;44.444;26.006;2024-02-04T15:41:21;5.00;;;3.15;;
46290;SDS011;32023;44.444;26.006;2024-02-04T15:43:48;7.35;;;2.80;;
46290;SDS011;32023;44.444;26.006;2024-02-04T15:48:53;25.45;;;8.32;;
46290;SDS011;32023;44.444;26.006;2024-02-04T15:51:20;15.80;;;7.70;;
46290;SDS011;32023;44.444;26.006;2024-02-04T15:53:47;7.68;;;4.65;;
46290;SDS011;32023;44.444;26.006;2024-02-04T15:56:15;5.22;;;3.38;;
46290;SDS011;32023;44.444;26.006;2024-02-04T15:58:46;14.00;;;3.45;;
46290;SDS011;32023;44.444;26.006;2024-02-04T16:01:16;7.28;;;3.75;;
46290;SDS011;32023;44.444;26.006;2024-02-04T16:03:48;6.43;;;3.40;;
46290;SDS011;32023;44.444;26.006;2024-02-04T16:06:20;6.70;;;4.03;;
46290;SDS011;32023;44.444;26.006;2024-02-04T16:11:23;8.82;;;5.03;;
46290;SDS011;32023;44.444;26.006;2024-02-04T16:14:37;9.77;;;5.32;;
46290;SDS011;32023;44.444;26.006;2024-02-04T16:17:21;14.95;;;7.03;;
46290;SDS011;32023;44.444;26.006;2024-02-04T16:19:51;13.70;;;7.50;;
46290;SDS011;32023;44.444;26.006;2024-02-04T16:22:27;11.98;;;5.97;;
46290;SDS011;32023;44.444;26.006;2024-02-04T16:27:26;9.13;;;5.35;;
46290;SDS011;32023;44.444;26.006;2024-02-04T16:29:57;11.20;;;5.40;;
46290;SDS011;32023;44.444;26.006;2024-02-04T16:32:23;9.88;;;5.43;;
46290;SDS011;32023;44.444;26.006;2024-02-04T16:34:53;9.63;;;4.47;;
46290;SDS011;32023;44.444;26.006;2024-02-04T16:40:14;7.90;;;5.32;;
46290;SDS011;32023;44.444;26.006;2024-02-04T16:42:40;8.52;;;5.13;;
46290;SDS011;32023;44.444;26.006;2024-02-04T16:45:10;11.75;;;6.25;;
46290;SDS011;32023;44.444;26.006;2024-02-04T16:47:39;12.75;;;6.55;;
46290;SDS011;32023;44.444;26.006;2024-02-04T16:50:06;7.80;;;4.75;;
46290;SDS011;32023;44.444;26.006;2024-02-04T16:52:41;12.38;;;5.55;;
46290;SDS011;32023;44.444;26.006;2024-02-04T16:55:07;11.85;;;4.90;;
46290;SDS011;32023;44.444;26.006;2024-02-04T16:57:34;7.28;;;4.43;;
46290;SDS011;32023;44.444;26.006;2024-02-04T17:00:03;7.15;;;4.00;;
46290;SDS011;32023;44.444;26.006;2024-02-04T17:02:31;7.20;;;4.25;;
46290;SDS011;32023;44.444;26.006;2024-02-04T17:05:00;9.43;;;3.78;;
46290;SDS011;32023;44.444;26.006;2024-02-04T17:07:27;8.68;;;3.70;;
46290;SDS011;32023;44.444;26.006;2024-02-04T17:09:54;7.38;;;3.03;;
46290;SDS011;32023;44.444;26.006;2024-02-04T17:12:26;7.90;;;2.65;;
46290;SDS011;32023;44.444;26.006;2024-02-04T17:14:57;2.83;;;1.80;;
46290;SDS011;32023;44.444;26.006;2024-02-04T17:17:24;7.13;;;1.70;;
46290;SDS011;32023;44.444;26.006;2024-02-04T17:22:46;3.75;;;1.73;;
46290;SDS011;32023;44.444;26.006;2024-02-04T17:25:29;5.07;;;1.60;;
46290;SDS011;32023;44.444;26.006;2024-02-04T17:28:15;7.75;;;2.33;;
46290;SDS011;32023;44.444;26.006;2024-02-04T17:30:50;3.10;;;1.73;;
46290;SDS011;32023;44.444;26.006;2024-02-04T17:36:15;3.78;;;2.22;;
46290;SDS011;32023;44.444;26.006;2024-02-04T17:45:05;2.65;;;1.95;;
46290;SDS011;32023;44.444;26.006;2024-02-04T17:47:33;3.03;;;2.25;;
46290;SDS011;32023;44.444;26.006;2024-02-04T17:50:08;4.43;;;2.72;;
46290;SDS011;32023;44.444;26.006;2024-02-04T17:52:43;5.55;;;2.88;;
46290;SDS011;32023;44.444;26.006;2024-02-04T17:55:10;4.45;;;2.30;;
46290;SDS011;32023;44.444;26.006;2024-02-04T17:57:36;4.60;;;2.60;;
46290;SDS011;32023;44.444;26.006;2024-02-04T18:03:15;3.45;;;2.38;;
46290;SDS011;32023;44.444;26.006;2024-02-04T18:05:47;4.10;;;2.35;;
46290;SDS011;32023;44.444;26.006;2024-02-04T18:08:23;6.15;;;2.70;;
46290;SDS011;32023;44.444;26.006;2024-02-04T18:10:56;9.63;;;3.00;;
46290;SDS011;32023;44.444;26.006;2024-02-04T18:13:22;5.65;;;2.58;;
46290;SDS011;32023;44.444;26.006;2024-02-04T18:15:48;3.83;;;2.40;;
46290;SDS011;32023;44.444;26.006;2024-02-04T18:18:19;6.15;;;2.95;;
46290;SDS011;32023;44.444;26.006;2024-02-04T18:20:55;4.05;;;2.70;;
46290;SDS011;32023;44.444;26.006;2024-02-04T18:23:29;4.57;;;2.80;;
46290;SDS011;32023;44.444;26.006;2024-02-04T18:25:58;3.55;;;2.35;;
46290;SDS011;32023;44.444;26.006;2024-02-04T18:28:29;4.70;;;2.60;;
46290;SDS011;32023;44.444;26.006;2024-02-04T18:34:14;6.30;;;3.15;;
46290;SDS011;32023;44.444;26.006;2024-02-04T18:37:02;5.70;;;3.33;;
46290;SDS011;32023;44.444;26.006;2024-02-04T18:39:31;5.25;;;2.72;;
46290;SDS011;32023;44.444;26.006;2024-02-04T18:41:58;4.18;;;2.80;;
46290;SDS011;32023;44.444;26.006;2024-02-04T18:44:25;7.53;;;2.95;;
46290;SDS011;32023;44.444;26.006;2024-02-04T18:46:58;4.47;;;2.50;;
46290;SDS011;32023;44.444;26.006;2024-02-04T18:52:51;3.22;;;2.47;;
46290;SDS011;32023;44.444;26.006;2024-02-04T18:55:19;4.35;;;2.50;;
46290;SDS011;32023;44.444;26.006;2024-02-04T18:57:46;3.60;;;2.50;;
46290;SDS011;32023;44.444;26.006;2024-02-04T19:00:15;5.10;;;2.72;;
46290;SDS011;32023;44.444;26.006;2024-02-04T19:02:55;6.28;;;3.17;;
46290;SDS011;32023;44.444;26.006;2024-02-04T19:05:21;4.55;;;3.15;;
46290;SDS011;32023;44.444;26.006;2024-02-04T19:07:48;4.72;;;2.75;;
46290;SDS011;32023;44.444;26.006;2024-02-04T19:10:23;5.70;;;3.13;;
46290;SDS011;32023;44.444;26.006;2024-02-04T19:13:13;5.60;;;3.00;;
46290;SDS011;32023;44.444;26.006;2024-02-04T19:19:05;6.82;;;3.38;;
46290;SDS011;32023;44.444;26.006;2024-02-04T19:21:49;4.15;;;2.78;;
46290;SDS011;32023;44.444;26.006;2024-02-04T19:24:19;4.70;;;3.03;;
46290;SDS011;32023;44.444;26.006;2024-02-04T19:27:34;6.50;;;3.15;;
46290;SDS011;32023;44.444;26.006;2024-02-04T19:33:53;7.68;;;3.97;;
46290;SDS011;32023;44.444;26.006;2024-02-04T19:36:33;5.05;;;2.83;;
46290;SDS011;32023;44.444;26.006;2024-02-04T19:51:11;4.80;;;2.80;;